sensor_id;sensor_type;location;lat;lon;timestamp;P1;durP1;ratioP1;P2;durP2;ratioP2
72517;SDS011;60540;51.178;6.738;2023-06-14T00:01:32;7.68;;;4.93;;
72517;SDS011;60540;51.178;6.738;2023-06-14T00:04:00;7.13;;;4.45;;
72517;SDS011;60540;51.178;6.738;2023-06-14T00:06:28;7.43;;;4.63;;
72517;SDS011;60540;51.178;6.738;2023-06-14T00:08:54;6.95;;;4.47;;
72517;SDS011;60540;51.178;6.738;2023-06-14T00:11:20;7.70;;;4.60;;
72517;SDS011;60540;51.178;6.738;2023-06-14T00:13:46;6.72;;;4.60;;
72517;SDS011;60540;51.178;6.738;2023-06-14T00:16:12;8.30;;;4.90;;
72517;SDS011;60540;51.178;6.738;2023-06-14T00:18:38;8.13;;;4.18;;
72517;SDS011;60540;51.178;6.738;2023-06-14T00:21:04;8.07;;;4.90;;
72517;SDS011;60540;51.178;6.738;2023-06-14T00:23:30;7.60;;;4.85;;
72517;SDS011;60540;51.178;6.738;2023-06-14T00:25:56;7.10;;;4.45;;
72517;SDS011;60540;51.178;6.738;2023-06-14T00:28:22;8.93;;;4.97;;
72517;SDS011;60540;51.178;6.738;2023-06-14T00:30:48;6.65;;;4.60;;
72517;SDS011;60540;51.178;6.738;2023-06-14T00:33:13;7.40;;;4.90;;
72517;SDS011;60540;51.178;6.738;2023-06-14T00:35:39;6.82;;;4.20;;
72517;SDS011;60540;51.178;6.738;2023-06-14T00:38:05;6.38;;;3.88;;
72517;SDS011;60540;51.178;6.738;2023-06-14T00:40:31;10.18;;;4.85;;
72517;SDS011;60540;51.178;6.738;2023-06-14T00:42:57;9.10;;;4.65;;
72517;SDS011;60540;51.178;6.738;2023-06-14T00:45:23;8.82;;;4.45;;
72517;SDS011;60540;51.178;6.738;2023-06-14T00:47:48;5.90;;;4.22;;
72517;SDS011;60540;51.178;6.738;2023-06-14T00:50:18;7.80;;;4.90;;
72517;SDS011;60540;51.178;6.738;2023-06-14T00:52:45;6.53;;;4.68;;
72517;SDS011;60540;51.178;6.738;2023-06-14T00:55:11;8.65;;;4.93;;
72517;SDS011;60540;51.178;6.738;2023-06-14T00:57:37;7.32;;;5.10;;
72517;SDS011;60540;51.178;6.738;2023-06-14T01:00:03;7.82;;;5.03;;
72517;SDS011;60540;51.178;6.738;2023-06-14T01:02:34;6.78;;;4.38;;
72517;SDS011;60540;51.178;6.738;2023-06-14T01:05:03;6.00;;;4.40;;
72517;SDS011;60540;51.178;6.738;2023-06-14T01:10:35;7.22;;;5.20;;
72517;SDS011;60540;51.178;6.738;2023-06-14T01:13:05;7.82;;;4.57;;
72517;SDS011;60540;51.178;6.738;2023-06-14T01:15:32;6.82;;;5.00;;
72517;SDS011;60540;51.178;6.738;2023-06-14T01:17:58;8.55;;;4.97;;
72517;SDS011;60540;51.178;6.738;2023-06-14T01:20:34;8.27;;;4.72;;
72517;SDS011;60540;51.178;6.738;2023-06-14T01:23:02;6.82;;;4.13;;
72517;SDS011;60540;51.178;6.738;2023-06-14T01:25:28;7.55;;;5.13;;
72517;SDS011;60540;51.178;6.738;2023-06-14T01:28:01;6.55;;;4.75;;
72517;SDS011;60540;51.178;6.738;2023-06-14T01:30:29;6.22;;;4.50;;
72517;SDS011;60540;51.178;6.738;2023-06-14T01:32:55;9.13;;;5.22;;
72517;SDS011;60540;51.178;6.738;2023-06-14T01:35:22;9.65;;;5.20;;
72517;SDS011;60540;51.178;6.738;2023-06-14T01:37:48;10.23;;;5.43;;
72517;SDS011;60540;51.178;6.738;2023-06-14T01:40:14;9.63;;;5.03;;
72517;SDS011;60540;51.178;6.738;2023-06-14T01:42:41;7.85;;;5.70;;
72517;SDS011;60540;51.178;6.738;2023-06-14T01:45:07;8.43;;;5.70;;
72517;SDS011;60540;51.178;6.738;2023-06-14T01:47:34;8.93;;;4.90;;
72517;SDS011;60540;51.178;6.738;2023-06-14T01:50:04;7.32;;;5.05;;
72517;SDS011;60540;51.178;6.738;2023-06-14T01:52:30;8.18;;;5.40;;
72517;SDS011;60540;51.178;6.738;2023-06-14T01:54:56;7.35;;;4.95;;
72517;SDS011;60540;51.178;6.738;2023-06-14T01:59:49;6.97;;;4.97;;
72517;SDS011;60540;51.178;6.738;2023-06-14T02:04:41;8.80;;;4.90;;
72517;SDS011;60540;51.178;6.738;2023-06-14T02:07:07;6.10;;;3.97;;
72517;SDS011;60540;51.178;6.738;2023-06-14T02:09:34;6.95;;;4.50;;
72517;SDS011;60540;51.178;6.738;2023-06-14T02:12:00;7.82;;;4.63;;
72517;SDS011;60540;51.178;6.738;2023-06-14T02:16:52;6.25;;;3.55;;
72517;SDS011;60540;51.178;6.738;2023-06-14T02:21:45;8.10;;;5.20;;
72517;SDS011;60540;51.178;6.738;2023-06-14T02:24:11;7.20;;;4.95;;
72517;SDS011;60540;51.178;6.738;2023-06-14T02:26:36;7.28;;;5.00;;
72517;SDS011;60540;51.178;6.738;2023-06-14T02:29:06;8.02;;;5.20;;
72517;SDS011;60540;51.178;6.738;2023-06-14T02:31:35;9.35;;;4.68;;
72517;SDS011;60540;51.178;6.738;2023-06-14T02:34:01;6.65;;;5.13;;
72517;SDS011;60540;51.178;6.738;2023-06-14T02:36:27;6.53;;;4.88;;
72517;SDS011;60540;51.178;6.738;2023-06-14T02:38:55;9.05;;;5.40;;
72517;SDS011;60540;51.178;6.738;2023-06-14T02:41:23;7.03;;;4.80;;
72517;SDS011;60540;51.178;6.738;2023-06-14T02:43:49;7.03;;;4.68;;
72517;SDS011;60540;51.178;6.738;2023-06-14T02:46:15;6.97;;;5.22;;
72517;SDS011;60540;51.178;6.738;2023-06-14T02:48:41;8.18;;;5.38;;
72517;SDS011;60540;51.178;6.738;2023-06-14T02:51:06;7.50;;;4.88;;
72517;SDS011;60540;51.178;6.738;2023-06-14T02:53:34;7.95;;;4.75;;
72517;SDS011;60540;51.178;6.738;2023-06-14T02:56:00;6.30;;;4.68;;
72517;SDS011;60540;51.178;6.738;2023-06-14T02:58:26;7.88;;;5.00;;
72517;SDS011;60540;51.178;6.738;2023-06-14T03:00:52;8.40;;;5.32;;
72517;SDS011;60540;51.178;6.738;2023-06-14T03:03:21;7.10;;;4.22;;
72517;SDS011;60540;51.178;6.738;2023-06-14T03:05:49;6.72;;;4.60;;
72517;SDS011;60540;51.178;6.738;2023-06-14T03:08:16;7.97;;;4.93;;
72517;SDS011;60540;51.178;6.738;2023-06-14T03:10:45;8.05;;;4.80;;
72517;SDS011;60540;51.178;6.738;2023-06-14T03:13:15;7.10;;;4.57;;
72517;SDS011;60540;51.178;6.738;2023-06-14T03:15:46;6.85;;;4.47;;
72517;SDS011;60540;51.178;6.738;2023-06-14T03:18:13;7.45;;;4.90;;
72517;SDS011;60540;51.178;6.738;2023-06-14T03:20:40;6.90;;;4.85;;
72517;SDS011;60540;51.178;6.738;2023-06-14T03:23:06;8.90;;;5.30;;
72517;SDS011;60540;51.178;6.738;2023-06-14T03:25:32;5.90;;;4.10;;
72517;SDS011;60540;51.178;6.738;2023-06-14T03:28:04;7.22;;;5.05;;
72517;SDS011;60540;51.178;6.738;2023-06-14T03:30:30;6.95;;;4.40;;
72517;SDS011;60540;51.178;6.738;2023-06-14T03:35:22;6.18;;;3.83;;
72517;SDS011;60540;51.178;6.738;2023-06-14T03:37:49;6.50;;;5.03;;
72517;SDS011;60540;51.178;6.738;2023-06-14T03:40:15;6.55;;;4.68;;
72517;SDS011;60540;51.178;6.738;2023-06-14T03:42:43;9.48;;;4.80;;
72517;SDS011;60540;51.178;6.738;2023-06-14T03:45:08;8.18;;;4.50;;
72517;SDS011;60540;51.178;6.738;2023-06-14T03:47:35;6.88;;;4.25;;
72517;SDS011;60540;51.178;6.738;2023-06-14T03:50:01;6.97;;;4.93;;
72517;SDS011;60540;51.178;6.738;2023-06-14T03:52:28;8.05;;;5.18;;
72517;SDS011;60540;51.178;6.738;2023-06-14T03:54:53;6.53;;;4.60;;
72517;SDS011;60540;51.178;6.738;2023-06-14T03:57:19;6.32;;;3.92;;
72517;SDS011;60540;51.178;6.738;2023-06-14T03:59:48;7.35;;;5.03;;
72517;SDS011;60540;51.178;6.738;2023-06-14T04:02:13;7.88;;;4.60;;
72517;SDS011;60540;51.178;6.738;2023-06-14T04:04:41;6.50;;;4.00;;
72517;SDS011;60540;51.178;6.738;2023-06-14T04:07:10;8.05;;;4.50;;
72517;SDS011;60540;51.178;6.738;2023-06-14T04:09:39;7.53;;;5.13;;
72517;SDS011;60540;51.178;6.738;2023-06-14T04:12:05;7.88;;;4.97;;
72517;SDS011;60540;51.178;6.738;2023-06-14T04:14:31;8.45;;;4.18;;
72517;SDS011;60540;51.178;6.738;2023-06-14T04:17:00;6.93;;;4.38;;
72517;SDS011;60540;51.178;6.738;2023-06-14T04:19:26;6.65;;;4.38;;
72517;SDS011;60540;51.178;6.738;2023-06-14T04:21:52;8.13;;;4.30;;
72517;SDS011;60540;51.178;6.738;2023-06-14T04:24:18;8.55;;;4.60;;
72517;SDS011;60540;51.178;6.738;2023-06-14T04:26:44;6.45;;;4.22;;
72517;SDS011;60540;51.178;6.738;2023-06-14T04:29:10;7.68;;;4.93;;
72517;SDS011;60540;51.178;6.738;2023-06-14T04:31:40;6.95;;;4.13;;
72517;SDS011;60540;51.178;6.738;2023-06-14T04:36:33;6.82;;;4.40;;
72517;SDS011;60540;51.178;6.738;2023-06-14T04:39:00;7.82;;;4.30;;
72517;SDS011;60540;51.178;6.738;2023-06-14T04:41:29;6.82;;;4.38;;
72517;SDS011;60540;51.178;6.738;2023-06-14T04:43:59;7.35;;;4.35;;
72517;SDS011;60540;51.178;6.738;2023-06-14T04:46:27;8.18;;;3.83;;
72517;SDS011;60540;51.178;6.738;2023-06-14T04:48:53;6.90;;;3.97;;
72517;SDS011;60540;51.178;6.738;2023-06-14T04:51:20;6.53;;;4.07;;
72517;SDS011;60540;51.178;6.738;2023-06-14T04:53:47;6.50;;;4.13;;
72517;SDS011;60540;51.178;6.738;2023-06-14T04:56:15;7.60;;;4.30;;
72517;SDS011;60540;51.178;6.738;2023-06-14T04:58:42;7.53;;;4.63;;
72517;SDS011;60540;51.178;6.738;2023-06-14T05:01:09;6.25;;;4.35;;
72517;SDS011;60540;51.178;6.738;2023-06-14T05:03:35;9.43;;;4.43;;
72517;SDS011;60540;51.178;6.738;2023-06-14T05:06:01;8.13;;;4.40;;
72517;SDS011;60540;51.178;6.738;2023-06-14T05:08:27;6.07;;;3.90;;
72517;SDS011;60540;51.178;6.738;2023-06-14T05:10:53;7.78;;;3.90;;
72517;SDS011;60540;51.178;6.738;2023-06-14T05:13:19;7.20;;;4.15;;
72517;SDS011;60540;51.178;6.738;2023-06-14T05:15:45;6.88;;;4.22;;
72517;SDS011;60540;51.178;6.738;2023-06-14T05:18:10;7.15;;;4.43;;
72517;SDS011;60540;51.178;6.738;2023-06-14T05:20:36;6.93;;;4.63;;
72517;SDS011;60540;51.178;6.738;2023-06-14T05:23:07;7.70;;;4.57;;
72517;SDS011;60540;51.178;6.738;2023-06-14T05:25:33;6.90;;;3.90;;
72517;SDS011;60540;51.178;6.738;2023-06-14T05:27:58;6.32;;;3.80;;
72517;SDS011;60540;51.178;6.738;2023-06-14T05:30:24;6.25;;;4.03;;
72517;SDS011;60540;51.178;6.738;2023-06-14T05:32:50;8.68;;;4.15;;
72517;SDS011;60540;51.178;6.738;2023-06-14T05:35:16;7.13;;;4.38;;
72517;SDS011;60540;51.178;6.738;2023-06-14T05:37:41;7.38;;;4.65;;
72517;SDS011;60540;51.178;6.738;2023-06-14T05:40:07;6.97;;;4.30;;
72517;SDS011;60540;51.178;6.738;2023-06-14T05:42:34;6.30;;;3.85;;
72517;SDS011;60540;51.178;6.738;2023-06-14T05:45:00;8.15;;;3.97;;
72517;SDS011;60540;51.178;6.738;2023-06-14T05:47:26;7.28;;;4.10;;
72517;SDS011;60540;51.178;6.738;2023-06-14T05:49:53;6.90;;;3.70;;
72517;SDS011;60540;51.178;6.738;2023-06-14T05:52:19;7.35;;;3.35;;
72517;SDS011;60540;51.178;6.738;2023-06-14T05:54:46;7.78;;;3.78;;
72517;SDS011;60540;51.178;6.738;2023-06-14T05:57:12;6.60;;;3.28;;
72517;SDS011;60540;51.178;6.738;2023-06-14T05:59:38;6.90;;;3.67;;
72517;SDS011;60540;51.178;6.738;2023-06-14T06:02:03;6.40;;;3.70;;
72517;SDS011;60540;51.178;6.738;2023-06-14T06:04:29;6.78;;;3.58;;
72517;SDS011;60540;51.178;6.738;2023-06-14T06:06:56;6.70;;;3.85;;
72517;SDS011;60540;51.178;6.738;2023-06-14T06:09:22;7.57;;;3.35;;
72517;SDS011;60540;51.178;6.738;2023-06-14T06:11:47;5.60;;;3.63;;
72517;SDS011;60540;51.178;6.738;2023-06-14T06:14:13;5.75;;;3.35;;
72517;SDS011;60540;51.178;6.738;2023-06-14T06:16:39;5.78;;;3.47;;
72517;SDS011;60540;51.178;6.738;2023-06-14T06:19:04;4.85;;;3.40;;
72517;SDS011;60540;51.178;6.738;2023-06-14T06:21:30;5.38;;;2.95;;
72517;SDS011;60540;51.178;6.738;2023-06-14T06:23:57;5.05;;;3.20;;
72517;SDS011;60540;51.178;6.738;2023-06-14T06:26:22;6.93;;;3.33;;
72517;SDS011;60540;51.178;6.738;2023-06-14T06:28:48;6.45;;;3.47;;
72517;SDS011;60540;51.178;6.738;2023-06-14T06:31:14;6.90;;;3.20;;
72517;SDS011;60540;51.178;6.738;2023-06-14T06:33:40;5.30;;;3.58;;
72517;SDS011;60540;51.178;6.738;2023-06-14T06:36:06;4.70;;;3.20;;
72517;SDS011;60540;51.178;6.738;2023-06-14T06:38:32;7.05;;;3.35;;
72517;SDS011;60540;51.178;6.738;2023-06-14T06:40:58;4.93;;;3.03;;
72517;SDS011;60540;51.178;6.738;2023-06-14T06:43:24;4.90;;;2.90;;
72517;SDS011;60540;51.178;6.738;2023-06-14T06:45:49;6.95;;;3.92;;
72517;SDS011;60540;51.178;6.738;2023-06-14T06:48:15;6.10;;;3.33;;
72517;SDS011;60540;51.178;6.738;2023-06-14T06:50:41;7.15;;;2.88;;
72517;SDS011;60540;51.178;6.738;2023-06-14T06:53:07;7.43;;;3.45;;
72517;SDS011;60540;51.178;6.738;2023-06-14T06:55:32;5.22;;;2.78;;
72517;SDS011;60540;51.178;6.738;2023-06-14T06:57:58;6.20;;;3.30;;
72517;SDS011;60540;51.178;6.738;2023-06-14T07:00:25;8.63;;;3.45;;
72517;SDS011;60540;51.178;6.738;2023-06-14T07:02:51;7.50;;;3.53;;
72517;SDS011;60540;51.178;6.738;2023-06-14T07:05:17;5.95;;;2.78;;
72517;SDS011;60540;51.178;6.738;2023-06-14T07:07:43;5.22;;;2.75;;
72517;SDS011;60540;51.178;6.738;2023-06-14T07:10:09;5.05;;;2.60;;
72517;SDS011;60540;51.178;6.738;2023-06-14T07:12:36;4.95;;;2.65;;
72517;SDS011;60540;51.178;6.738;2023-06-14T07:15:05;4.00;;;2.38;;
72517;SDS011;60540;51.178;6.738;2023-06-14T07:17:32;4.70;;;2.40;;
72517;SDS011;60540;51.178;6.738;2023-06-14T07:19:58;5.10;;;3.10;;
72517;SDS011;60540;51.178;6.738;2023-06-14T07:22:24;4.22;;;2.70;;
72517;SDS011;60540;51.178;6.738;2023-06-14T07:24:49;4.68;;;2.40;;
72517;SDS011;60540;51.178;6.738;2023-06-14T07:27:15;4.35;;;2.20;;
72517;SDS011;60540;51.178;6.738;2023-06-14T07:29:41;3.80;;;2.00;;
72517;SDS011;60540;51.178;6.738;2023-06-14T07:32:07;3.15;;;1.88;;
72517;SDS011;60540;51.178;6.738;2023-06-14T07:34:32;6.22;;;2.17;;
72517;SDS011;60540;51.178;6.738;2023-06-14T07:36:58;6.15;;;2.05;;
72517;SDS011;60540;51.178;6.738;2023-06-14T07:39:24;3.72;;;1.92;;
72517;SDS011;60540;51.178;6.738;2023-06-14T07:41:50;3.08;;;1.83;;
72517;SDS011;60540;51.178;6.738;2023-06-14T07:44:15;3.38;;;1.85;;
72517;SDS011;60540;51.178;6.738;2023-06-14T07:46:41;3.35;;;1.70;;
72517;SDS011;60540;51.178;6.738;2023-06-14T07:49:07;5.38;;;2.00;;
72517;SDS011;60540;51.178;6.738;2023-06-14T07:51:33;3.70;;;1.88;;
72517;SDS011;60540;51.178;6.738;2023-06-14T07:54:01;3.72;;;1.90;;
72517;SDS011;60540;51.178;6.738;2023-06-14T07:56:29;3.92;;;1.90;;
72517;SDS011;60540;51.178;6.738;2023-06-14T07:58:54;4.47;;;2.20;;
72517;SDS011;60540;51.178;6.738;2023-06-14T08:01:20;4.05;;;2.05;;
72517;SDS011;60540;51.178;6.738;2023-06-14T08:03:46;4.03;;;2.10;;
72517;SDS011;60540;51.178;6.738;2023-06-14T08:06:12;4.90;;;2.03;;
72517;SDS011;60540;51.178;6.738;2023-06-14T08:08:38;3.75;;;1.95;;
72517;SDS011;60540;51.178;6.738;2023-06-14T08:11:04;5.10;;;2.00;;
72517;SDS011;60540;51.178;6.738;2023-06-14T08:13:30;4.97;;;1.88;;
72517;SDS011;60540;51.178;6.738;2023-06-14T08:15:55;5.00;;;2.20;;
72517;SDS011;60540;51.178;6.738;2023-06-14T08:18:22;4.82;;;1.80;;
72517;SDS011;60540;51.178;6.738;2023-06-14T08:20:48;7.00;;;1.95;;
72517;SDS011;60540;51.178;6.738;2023-06-14T08:23:15;4.63;;;1.75;;
72517;SDS011;60540;51.178;6.738;2023-06-14T08:25:44;3.38;;;1.55;;
72517;SDS011;60540;51.178;6.738;2023-06-14T08:28:10;3.38;;;1.65;;
72517;SDS011;60540;51.178;6.738;2023-06-14T08:30:36;4.28;;;2.20;;
72517;SDS011;60540;51.178;6.738;2023-06-14T08:33:02;4.22;;;2.00;;
72517;SDS011;60540;51.178;6.738;2023-06-14T08:35:28;4.28;;;1.73;;
72517;SDS011;60540;51.178;6.738;2023-06-14T08:37:54;4.60;;;1.92;;
72517;SDS011;60540;51.178;6.738;2023-06-14T08:40:20;3.33;;;1.50;;
72517;SDS011;60540;51.178;6.738;2023-06-14T08:42:47;5.18;;;2.00;;
72517;SDS011;60540;51.178;6.738;2023-06-14T08:45:15;17.10;;;3.15;;
72517;SDS011;60540;51.178;6.738;2023-06-14T08:47:41;8.60;;;2.38;;
72517;SDS011;60540;51.178;6.738;2023-06-14T08:50:07;8.25;;;2.10;;
72517;SDS011;60540;51.178;6.738;2023-06-14T08:55:06;4.07;;;1.60;;
72517;SDS011;60540;51.178;6.738;2023-06-14T08:57:35;3.03;;;1.50;;
72517;SDS011;60540;51.178;6.738;2023-06-14T09:00:03;3.75;;;1.60;;
72517;SDS011;60540;51.178;6.738;2023-06-14T09:02:39;4.97;;;1.55;;
72517;SDS011;60540;51.178;6.738;2023-06-14T09:05:09;3.53;;;1.85;;
72517;SDS011;60540;51.178;6.738;2023-06-14T09:07:37;3.38;;;1.60;;
72517;SDS011;60540;51.178;6.738;2023-06-14T09:10:05;2.97;;;1.52;;
72517;SDS011;60540;51.178;6.738;2023-06-14T09:12:33;3.00;;;1.70;;
72517;SDS011;60540;51.178;6.738;2023-06-14T09:14:59;2.83;;;1.63;;
72517;SDS011;60540;51.178;6.738;2023-06-14T09:17:25;3.00;;;1.70;;
72517;SDS011;60540;51.178;6.738;2023-06-14T09:22:17;3.80;;;1.83;;
72517;SDS011;60540;51.178;6.738;2023-06-14T09:24:43;2.40;;;1.23;;
72517;SDS011;60540;51.178;6.738;2023-06-14T09:27:08;2.78;;;1.25;;
72517;SDS011;60540;51.178;6.738;2023-06-14T09:29:40;4.68;;;1.60;;
72517;SDS011;60540;51.178;6.738;2023-06-14T09:32:06;5.20;;;1.60;;
72517;SDS011;60540;51.178;6.738;2023-06-14T09:34:32;2.97;;;1.48;;
72517;SDS011;60540;51.178;6.738;2023-06-14T09:36:58;3.70;;;1.52;;
72517;SDS011;60540;51.178;6.738;2023-06-14T09:39:24;3.10;;;1.63;;
72517;SDS011;60540;51.178;6.738;2023-06-14T09:41:50;3.35;;;1.60;;
72517;SDS011;60540;51.178;6.738;2023-06-14T09:44:16;4.47;;;2.05;;
72517;SDS011;60540;51.178;6.738;2023-06-14T09:46:43;3.53;;;1.80;;
72517;SDS011;60540;51.178;6.738;2023-06-14T09:51:36;3.35;;;1.70;;
72517;SDS011;60540;51.178;6.738;2023-06-14T09:54:09;4.45;;;1.70;;
72517;SDS011;60540;51.178;6.738;2023-06-14T09:56:44;4.90;;;1.80;;
72517;SDS011;60540;51.178;6.738;2023-06-14T09:59:10;3.45;;;1.75;;
72517;SDS011;60540;51.178;6.738;2023-06-14T10:01:41;4.07;;;1.48;;
72517;SDS011;60540;51.178;6.738;2023-06-14T10:04:08;4.03;;;1.75;;
72517;SDS011;60540;51.178;6.738;2023-06-14T10:06:36;5.50;;;1.67;;
72517;SDS011;60540;51.178;6.738;2023-06-14T10:09:03;3.38;;;1.58;;
72517;SDS011;60540;51.178;6.738;2023-06-14T10:11:29;2.85;;;1.60;;
72517;SDS011;60540;51.178;6.738;2023-06-14T10:13:55;5.68;;;1.65;;
72517;SDS011;60540;51.178;6.738;2023-06-14T10:16:30;4.40;;;1.80;;
72517;SDS011;60540;51.178;6.738;2023-06-14T10:21:36;3.67;;;1.60;;
72517;SDS011;60540;51.178;6.738;2023-06-14T10:24:08;7.35;;;1.58;;
72517;SDS011;60540;51.178;6.738;2023-06-14T10:26:52;3.30;;;1.35;;
72517;SDS011;60540;51.178;6.738;2023-06-14T10:29:23;4.72;;;1.83;;
72517;SDS011;60540;51.178;6.738;2023-06-14T10:31:49;3.75;;;1.75;;
72517;SDS011;60540;51.178;6.738;2023-06-14T10:34:25;3.38;;;1.67;;
72517;SDS011;60540;51.178;6.738;2023-06-14T10:37:00;3.78;;;1.42;;
72517;SDS011;60540;51.178;6.738;2023-06-14T10:39:26;3.97;;;1.73;;
72517;SDS011;60540;51.178;6.738;2023-06-14T10:41:53;4.00;;;1.45;;
72517;SDS011;60540;51.178;6.738;2023-06-14T10:46:58;3.13;;;1.45;;
72517;SDS011;60540;51.178;6.738;2023-06-14T10:49:38;4.38;;;1.50;;
72517;SDS011;60540;51.178;6.738;2023-06-14T10:52:14;5.85;;;1.90;;
72517;SDS011;60540;51.178;6.738;2023-06-14T10:55:27;2.88;;;1.40;;
72517;SDS011;60540;51.178;6.738;2023-06-14T10:57:52;3.80;;;1.60;;
72517;SDS011;60540;51.178;6.738;2023-06-14T11:00:22;3.65;;;1.50;;
72517;SDS011;60540;51.178;6.738;2023-06-14T11:03:02;3.35;;;1.50;;
72517;SDS011;60540;51.178;6.738;2023-06-14T11:05:54;3.22;;;1.30;;
72517;SDS011;60540;51.178;6.738;2023-06-14T11:08:39;3.47;;;1.63;;
72517;SDS011;60540;51.178;6.738;2023-06-14T11:11:24;5.63;;;1.90;;
72517;SDS011;60540;51.178;6.738;2023-06-14T11:13:56;2.80;;;1.50;;
72517;SDS011;60540;51.178;6.738;2023-06-14T11:16:22;3.67;;;1.70;;
72517;SDS011;60540;51.178;6.738;2023-06-14T11:18:51;3.47;;;1.70;;
72517;SDS011;60540;51.178;6.738;2023-06-14T11:21:17;5.03;;;2.08;;
72517;SDS011;60540;51.178;6.738;2023-06-14T11:23:52;4.03;;;1.80;;
72517;SDS011;60540;51.178;6.738;2023-06-14T11:26:26;3.58;;;1.70;;
72517;SDS011;60540;51.178;6.738;2023-06-14T11:28:56;4.35;;;2.13;;
72517;SDS011;60540;51.178;6.738;2023-06-14T11:31:23;3.25;;;1.85;;
72517;SDS011;60540;51.178;6.738;2023-06-14T11:36:15;3.92;;;2.03;;
72517;SDS011;60540;51.178;6.738;2023-06-14T11:38:42;3.67;;;1.50;;
72517;SDS011;60540;51.178;6.738;2023-06-14T11:43:33;4.63;;;1.75;;
72517;SDS011;60540;51.178;6.738;2023-06-14T11:46:00;6.20;;;1.63;;
72517;SDS011;60540;51.178;6.738;2023-06-14T11:48:40;4.85;;;1.83;;
72517;SDS011;60540;51.178;6.738;2023-06-14T11:51:07;3.17;;;1.70;;
72517;SDS011;60540;51.178;6.738;2023-06-14T11:55:58;4.05;;;2.05;;
72517;SDS011;60540;51.178;6.738;2023-06-14T11:58:25;4.45;;;1.90;;
72517;SDS011;60540;51.178;6.738;2023-06-14T12:00:52;4.18;;;1.80;;
72517;SDS011;60540;51.178;6.738;2023-06-14T12:03:22;3.90;;;1.80;;
72517;SDS011;60540;51.178;6.738;2023-06-14T12:05:48;3.40;;;1.52;;
72517;SDS011;60540;51.178;6.738;2023-06-14T12:08:14;3.25;;;1.80;;
72517;SDS011;60540;51.178;6.738;2023-06-14T12:10:44;3.40;;;1.63;;
72517;SDS011;60540;51.178;6.738;2023-06-14T12:13:10;6.28;;;1.92;;
72517;SDS011;60540;51.178;6.738;2023-06-14T12:18:05;2.50;;;1.40;;
72517;SDS011;60540;51.178;6.738;2023-06-14T12:20:32;3.50;;;1.73;;
72517;SDS011;60540;51.178;6.738;2023-06-14T12:22:58;3.92;;;2.13;;
72517;SDS011;60540;51.178;6.738;2023-06-14T12:25:33;2.97;;;1.70;;
72517;SDS011;60540;51.178;6.738;2023-06-14T12:28:07;2.83;;;1.40;;
72517;SDS011;60540;51.178;6.738;2023-06-14T12:30:35;2.70;;;1.27;;
72517;SDS011;60540;51.178;6.738;2023-06-14T12:33:01;2.50;;;1.50;;
72517;SDS011;60540;51.178;6.738;2023-06-14T12:35:27;3.78;;;1.45;;
72517;SDS011;60540;51.178;6.738;2023-06-14T12:37:53;2.72;;;1.48;;
72517;SDS011;60540;51.178;6.738;2023-06-14T12:40:19;3.47;;;1.38;;
72517;SDS011;60540;51.178;6.738;2023-06-14T12:42:45;3.00;;;1.48;;
72517;SDS011;60540;51.178;6.738;2023-06-14T12:45:12;3.13;;;1.60;;
72517;SDS011;60540;51.178;6.738;2023-06-14T12:47:38;4.07;;;1.60;;
72517;SDS011;60540;51.178;6.738;2023-06-14T12:50:05;4.05;;;1.50;;
72517;SDS011;60540;51.178;6.738;2023-06-14T12:52:31;2.83;;;1.50;;
72517;SDS011;60540;51.178;6.738;2023-06-14T12:54:57;4.85;;;1.50;;
72517;SDS011;60540;51.178;6.738;2023-06-14T12:57:23;5.35;;;1.65;;
72517;SDS011;60540;51.178;6.738;2023-06-14T12:59:49;3.03;;;1.52;;
72517;SDS011;60540;51.178;6.738;2023-06-14T13:02:15;4.80;;;1.50;;
72517;SDS011;60540;51.178;6.738;2023-06-14T13:04:42;3.85;;;1.90;;
72517;SDS011;60540;51.178;6.738;2023-06-14T13:07:08;3.60;;;1.70;;
72517;SDS011;60540;51.178;6.738;2023-06-14T13:09:36;2.75;;;1.40;;
72517;SDS011;60540;51.178;6.738;2023-06-14T13:12:02;2.30;;;1.30;;
72517;SDS011;60540;51.178;6.738;2023-06-14T13:14:29;3.90;;;1.58;;
72517;SDS011;60540;51.178;6.738;2023-06-14T13:16:54;2.95;;;1.30;;
72517;SDS011;60540;51.178;6.738;2023-06-14T13:19:20;4.10;;;1.55;;
72517;SDS011;60540;51.178;6.738;2023-06-14T13:21:47;3.03;;;1.30;;
72517;SDS011;60540;51.178;6.738;2023-06-14T13:24:13;3.72;;;1.50;;
72517;SDS011;60540;51.178;6.738;2023-06-14T13:26:39;3.92;;;1.50;;
72517;SDS011;60540;51.178;6.738;2023-06-14T13:29:05;3.38;;;1.50;;
72517;SDS011;60540;51.178;6.738;2023-06-14T13:31:30;3.97;;;1.70;;
72517;SDS011;60540;51.178;6.738;2023-06-14T13:33:56;2.40;;;1.40;;
72517;SDS011;60540;51.178;6.738;2023-06-14T13:36:22;2.70;;;1.70;;
72517;SDS011;60540;51.178;6.738;2023-06-14T13:38:48;4.18;;;1.48;;
72517;SDS011;60540;51.178;6.738;2023-06-14T13:41:13;3.53;;;1.67;;
72517;SDS011;60540;51.178;6.738;2023-06-14T13:43:39;3.85;;;1.83;;
72517;SDS011;60540;51.178;6.738;2023-06-14T13:46:05;3.78;;;1.50;;
72517;SDS011;60540;51.178;6.738;2023-06-14T13:48:40;3.63;;;1.60;;
72517;SDS011;60540;51.178;6.738;2023-06-14T13:51:24;4.05;;;1.90;;
72517;SDS011;60540;51.178;6.738;2023-06-14T13:54:12;3.20;;;1.83;;
72517;SDS011;60540;51.178;6.738;2023-06-14T13:56:56;2.78;;;1.60;;
72517;SDS011;60540;51.178;6.738;2023-06-14T13:59:41;5.93;;;1.85;;
72517;SDS011;60540;51.178;6.738;2023-06-14T14:02:25;4.50;;;1.83;;
72517;SDS011;60540;51.178;6.738;2023-06-14T14:05:09;6.50;;;1.90;;
72517;SDS011;60540;51.178;6.738;2023-06-14T14:07:54;3.30;;;1.77;;
72517;SDS011;60540;51.178;6.738;2023-06-14T14:10:38;4.70;;;1.65;;
72517;SDS011;60540;51.178;6.738;2023-06-14T14:13:22;3.90;;;2.10;;
72517;SDS011;60540;51.178;6.738;2023-06-14T14:16:07;3.97;;;2.20;;
72517;SDS011;60540;51.178;6.738;2023-06-14T14:18:51;3.55;;;1.60;;
72517;SDS011;60540;51.178;6.738;2023-06-14T14:21:36;5.05;;;1.90;;
72517;SDS011;60540;51.178;6.738;2023-06-14T14:24:20;3.28;;;1.90;;
72517;SDS011;60540;51.178;6.738;2023-06-14T14:27:05;3.63;;;1.65;;
72517;SDS011;60540;51.178;6.738;2023-06-14T14:29:50;5.00;;;2.25;;
72517;SDS011;60540;51.178;6.738;2023-06-14T14:32:35;2.75;;;1.65;;
72517;SDS011;60540;51.178;6.738;2023-06-14T14:35:19;2.75;;;1.80;;
72517;SDS011;60540;51.178;6.738;2023-06-14T14:38:03;4.38;;;1.83;;
72517;SDS011;60540;51.178;6.738;2023-06-14T14:40:49;4.88;;;1.85;;
72517;SDS011;60540;51.178;6.738;2023-06-14T14:43:14;3.28;;;1.65;;
72517;SDS011;60540;51.178;6.738;2023-06-14T14:45:40;3.50;;;1.90;;
72517;SDS011;60540;51.178;6.738;2023-06-14T14:48:06;3.95;;;1.70;;
72517;SDS011;60540;51.178;6.738;2023-06-14T14:50:32;2.83;;;1.67;;
72517;SDS011;60540;51.178;6.738;2023-06-14T14:52:59;3.30;;;1.88;;
72517;SDS011;60540;51.178;6.738;2023-06-14T14:55:24;4.90;;;2.03;;
72517;SDS011;60540;51.178;6.738;2023-06-14T14:57:50;5.05;;;2.00;;
72517;SDS011;60540;51.178;6.738;2023-06-14T15:00:16;4.10;;;2.00;;
72517;SDS011;60540;51.178;6.738;2023-06-14T15:02:42;4.38;;;2.10;;
72517;SDS011;60540;51.178;6.738;2023-06-14T15:05:08;2.83;;;1.80;;
72517;SDS011;60540;51.178;6.738;2023-06-14T15:07:34;4.10;;;2.10;;
72517;SDS011;60540;51.178;6.738;2023-06-14T15:10:00;3.72;;;2.10;;
72517;SDS011;60540;51.178;6.738;2023-06-14T15:12:26;4.13;;;2.00;;
72517;SDS011;60540;51.178;6.738;2023-06-14T15:14:52;4.30;;;2.00;;
72517;SDS011;60540;51.178;6.738;2023-06-14T15:17:18;5.47;;;1.85;;
72517;SDS011;60540;51.178;6.738;2023-06-14T15:19:45;4.07;;;2.30;;
72517;SDS011;60540;51.178;6.738;2023-06-14T15:22:12;4.15;;;1.98;;
72517;SDS011;60540;51.178;6.738;2023-06-14T15:24:37;5.18;;;1.95;;
72517;SDS011;60540;51.178;6.738;2023-06-14T15:27:03;4.32;;;1.90;;
72517;SDS011;60540;51.178;6.738;2023-06-14T15:29:29;3.75;;;1.90;;
72517;SDS011;60540;51.178;6.738;2023-06-14T15:32:13;4.40;;;1.98;;
72517;SDS011;60540;51.178;6.738;2023-06-14T15:34:39;4.18;;;2.10;;